createdAt,value
2022-10-12T00:00:00.229Z,91.1
2022-10-12T00:05:00.228Z,91.1
2022-10-12T00:10:00.228Z,90.8
2022-10-12T00:15:00.228Z,90.7
2022-10-12T00:20:00.262Z,90.8
2022-10-12T00:25:00.237Z,90.8
2022-10-12T00:30:00.251Z,90.8
2022-10-12T00:35:00.283Z,90.5
2022-10-12T00:40:00.297Z,90.8
2022-10-12T00:45:00.289Z,90.8
2022-10-12T00:50:00.316Z,90.8
2022-10-12T00:55:00.350Z,90.8
2022-10-12T01:00:00.289Z,90.2
2022-10-12T01:05:00.295Z,90.2
2022-10-12T01:10:00.297Z,90.2
2022-10-12T01:15:00.454Z,90.1
2022-10-12T01:20:00.397Z,90.1
2022-10-12T01:25:00.324Z,90.4
2022-10-12T01:30:00.373Z,90.5
2022-10-12T01:35:00.322Z,90.8
2022-10-12T01:40:00.332Z,90.5
2022-10-12T01:45:00.348Z,90.5
2022-10-12T01:50:00.329Z,90.1
2022-10-12T01:55:00.332Z,90.2
2022-10-12T02:00:00.349Z,90.2
2022-10-12T02:05:01.282Z,90.1
2022-10-12T02:10:01.308Z,90.1
2022-10-12T02:15:01.418Z,90.2
2022-10-12T02:20:01.334Z,90.1
2022-10-12T02:25:01.422Z,90.2
2022-10-12T02:30:01.394Z,90.1
2022-10-12T02:35:01.398Z,90.2
2022-10-12T02:40:01.376Z,89.9
2022-10-12T02:45:01.276Z,90.2
2022-10-12T02:50:01.285Z,90.1
2022-10-12T02:55:01.306Z,90.1
2022-10-12T03:00:01.308Z,90.2
2022-10-12T03:05:01.314Z,90.2
2022-10-12T03:10:01.274Z,90.2
2022-10-12T03:15:01.319Z,90.2
2022-10-12T03:20:01.289Z,90.1
2022-10-12T03:25:01.331Z,90.2
2022-10-12T03:30:01.303Z,89.8
2022-10-12T03:35:01.361Z,89.8
2022-10-12T03:40:01.424Z,89.5
2022-10-12T03:45:01.367Z,89.5
2022-10-12T03:50:01.420Z,89.5
2022-10-12T03:55:01.357Z,89.5
2022-10-12T04:00:02.961Z,89.5
2022-10-12T04:05:01.360Z,89.5
2022-10-12T04:10:01.370Z,89.5
2022-10-12T04:15:01.369Z,89.5
2022-10-12T04:20:01.374Z,89.2
2022-10-12T04:25:01.361Z,89.5
2022-10-12T04:30:01.389Z,89.5
2022-10-12T04:35:01.385Z,89.5
2022-10-12T04:40:01.412Z,89.5
2022-10-12T04:45:01.397Z,89.5
2022-10-12T04:50:01.410Z,89.8
2022-10-12T04:55:01.339Z,89.5
2022-10-12T05:00:00.222Z,89.5
2022-10-12T05:05:00.259Z,89.8
2022-10-12T05:10:00.250Z,89.5
2022-10-12T05:15:00.326Z,89.5
2022-10-12T05:20:00.282Z,89.8
2022-10-12T05:25:00.353Z,89.2
2022-10-12T05:30:00.420Z,89.2
2022-10-12T05:35:00.369Z,89.5
2022-10-12T05:40:00.339Z,89.5
2022-10-12T05:45:00.315Z,89.5
2022-10-12T05:50:00.313Z,89.8
2022-10-12T05:55:00.333Z,89.8
2022-10-12T06:00:00.368Z,89.5
2022-10-12T06:05:00.368Z,89.5
2022-10-12T06:10:00.315Z,89.5
2022-10-12T06:15:00.308Z,89.5
2022-10-12T06:20:00.315Z,89.5
2022-10-12T06:25:00.349Z,89.8
2022-10-12T06:30:00.324Z,89.8
2022-10-12T06:35:00.350Z,89.8
2022-10-12T06:40:00.361Z,89.5
2022-10-12T06:45:00.427Z,89.5
2022-10-12T06:50:00.353Z,89.5
2022-10-12T06:55:00.371Z,89.5
2022-10-12T07:00:00.391Z,89.5
2022-10-12T07:05:00.397Z,89.5
2022-10-12T07:10:00.390Z,89.5
2022-10-12T07:15:00.422Z,89.5
2022-10-12T07:20:00.420Z,89.5
2022-10-12T07:25:00.437Z,89.5
2022-10-12T07:30:00.506Z,89.2
2022-10-12T07:35:00.413Z,89.5
2022-10-12T07:40:00.460Z,89.5
2022-10-12T07:45:00.414Z,89.5
2022-10-12T07:50:00.460Z,89.2
2022-10-12T07:55:00.420Z,89.6
2022-10-12T08:00:00.451Z,88.6
2022-10-12T08:05:00.422Z,88.6
2022-10-12T08:10:00.438Z,88
2022-10-12T08:15:00.433Z,88.6
2022-10-12T08:20:00.436Z,88
2022-10-12T08:25:00.436Z,88
2022-10-12T08:30:00.475Z,88
2022-10-12T08:35:00.448Z,88.3
2022-10-12T08:40:03.337Z,87.7
2022-10-12T08:45:00.489Z,87.4
2022-10-12T08:50:00.467Z,87.1
2022-10-12T08:55:00.455Z,87.1
2022-10-12T09:00:00.515Z,87.7
2022-10-12T09:05:00.474Z,87.7
2022-10-12T09:10:00.512Z,87.1
2022-10-12T09:15:00.487Z,86.2
2022-10-12T09:20:00.490Z,86.5
2022-10-12T09:25:00.488Z,86.2
2022-10-12T09:30:00.530Z,86.2
2022-10-12T09:35:00.511Z,85.3
2022-10-12T09:40:00.519Z,85.9
2022-10-12T09:45:00.544Z,85.3
2022-10-12T09:50:00.528Z,85
2022-10-12T09:55:02.536Z,85.3
2022-10-12T10:00:00.531Z,85.3
2022-10-12T10:05:00.595Z,85.3
2022-10-12T10:10:00.599Z,84.7
2022-10-12T10:15:00.606Z,83.1
2022-10-12T10:20:00.563Z,84.1
2022-10-12T10:25:00.949Z,83.5
2022-10-12T10:30:17.463Z,83.5
2022-10-12T10:35:00.646Z,82.9
2022-10-12T10:40:00.619Z,82.2
2022-10-12T10:45:00.641Z,82.2
2022-10-12T10:50:00.577Z,82.2
2022-10-12T10:55:00.556Z,81.6
2022-10-12T11:00:25.976Z,81.9
2022-10-12T11:05:00.313Z,81.9
2022-10-12T11:10:00.170Z,81.6
2022-10-12T11:15:00.211Z,80.4
2022-10-12T11:20:00.180Z,81
2022-10-12T11:25:00.322Z,80.4
2022-10-12T11:30:08.952Z,80.5
2022-10-12T11:35:00.235Z,79.2
2022-10-12T11:40:00.207Z,79.2
2022-10-12T11:45:00.261Z,80.2
2022-10-12T11:50:00.267Z,78.9
2022-10-12T11:55:00.229Z,78.6
2022-10-12T12:00:00.263Z,78.6
2022-10-12T12:05:00.236Z,78
2022-10-12T12:10:00.236Z,77.7
2022-10-12T12:15:00.255Z,77.4
2022-10-12T12:20:00.233Z,77.4
2022-10-12T12:25:00.250Z,76.5
2022-10-12T12:30:00.250Z,74.6
2022-10-12T12:35:01.039Z,74.9
2022-10-12T12:40:00.303Z,75.6
2022-10-12T12:45:00.285Z,74.3
2022-10-12T12:50:00.450Z,74.7
2022-10-12T12:55:00.340Z,74.3
2022-10-12T13:00:00.286Z,74.4
2022-10-12T13:05:00.342Z,73.7
2022-10-12T13:10:00.370Z,73.4
2022-10-12T13:15:00.395Z,74.4
2022-10-12T13:20:00.382Z,74.1
2022-10-12T13:25:00.320Z,72.5
2022-10-12T13:30:00.393Z,73.1
2022-10-12T13:35:00.330Z,72.5
2022-10-12T13:40:00.416Z,70.6
2022-10-12T13:45:00.330Z,71.8
2022-10-12T13:50:00.478Z,72.1
2022-10-12T13:55:00.361Z,73.7
2022-10-12T14:00:00.527Z,72.4
2022-10-12T14:05:00.382Z,73
2022-10-12T14:10:00.426Z,72.4
2022-10-12T14:15:00.405Z,73.7
2022-10-12T14:20:00.391Z,74.3
2022-10-12T14:25:00.373Z,73.7
2022-10-12T14:30:00.379Z,74.6
2022-10-12T14:35:00.380Z,74.3
2022-10-12T14:40:00.388Z,74.9
2022-10-12T14:45:00.422Z,74.9
2022-10-12T14:50:00.400Z,74.9
2022-10-12T14:55:00.472Z,75.2
2022-10-12T15:00:00.413Z,75.8
2022-10-12T15:05:00.406Z,76.1
2022-10-12T15:10:00.425Z,75.8
2022-10-12T15:15:00.429Z,76.7
2022-10-12T15:20:00.426Z,76.7
2022-10-12T15:25:00.452Z,76.7
2022-10-12T15:30:00.440Z,77.6
2022-10-12T15:35:00.469Z,77.3
2022-10-12T15:40:00.445Z,77.9
2022-10-12T15:45:00.486Z,78.2
2022-10-12T15:50:00.454Z,78.8
2022-10-12T15:55:00.464Z,78.5
2022-10-12T16:00:00.574Z,78.5
2022-10-12T16:05:00.562Z,78.5
2022-10-12T16:10:00.525Z,78.8
2022-10-12T16:15:00.498Z,78.4
2022-10-12T16:20:00.517Z,79.4
2022-10-12T16:25:00.504Z,79.1
2022-10-12T16:30:00.520Z,79.7
2022-10-12T16:35:00.580Z,81
2022-10-12T16:40:00.521Z,80.9
2022-10-12T16:45:00.631Z,80.9
2022-10-12T16:50:00.562Z,81.6
2022-10-12T16:55:00.525Z,80.9
2022-10-12T17:00:00.335Z,81.5
2022-10-12T17:05:00.233Z,82.2
2022-10-12T17:10:00.282Z,82.2
2022-10-12T17:15:00.212Z,82.1
2022-10-12T17:20:00.209Z,81.8
2022-10-12T17:25:00.222Z,82.2
2022-10-12T17:30:00.248Z,82.2
2022-10-12T17:35:00.241Z,82.1
2022-10-12T17:40:00.263Z,82.8
2022-10-12T17:45:00.209Z,82.8
2022-10-12T17:50:00.288Z,83.1
2022-10-12T17:55:00.262Z,83.4
2022-10-12T18:00:00.226Z,83.4
2022-10-12T18:05:00.260Z,83.4
2022-10-12T18:10:00.414Z,84
2022-10-12T18:15:00.232Z,84.3
2022-10-12T18:20:00.441Z,84.6
2022-10-12T18:25:00.301Z,84.3
2022-10-12T18:30:00.309Z,84.3
2022-10-12T18:35:00.359Z,84.3
2022-10-12T18:40:00.515Z,84.6
2022-10-12T18:45:00.467Z,84.3
2022-10-12T18:50:00.598Z,84.7
2022-10-12T18:55:00.408Z,84.6
2022-10-12T19:00:00.443Z,84.6
2022-10-12T19:05:00.389Z,84.9
2022-10-12T19:10:00.376Z,84.6
2022-10-12T19:15:00.361Z,85
2022-10-12T19:20:00.320Z,84.6
2022-10-12T19:25:00.321Z,85.3
2022-10-12T19:30:00.391Z,85.3
2022-10-12T19:35:00.332Z,84.6
2022-10-12T19:40:03.930Z,84.9
2022-10-12T19:45:00.328Z,85.3
2022-10-12T19:50:00.381Z,85.6
2022-10-12T19:55:00.341Z,85.6
2022-10-12T20:00:00.364Z,85.5
2022-10-12T20:05:00.360Z,85.5
2022-10-12T20:10:01.862Z,85.6
2022-10-12T20:15:00.394Z,85.2
2022-10-12T20:20:00.375Z,85.2
2022-10-12T20:25:00.371Z,85.2
2022-10-12T20:30:00.376Z,85.2
2022-10-12T20:35:00.389Z,85.2
2022-10-12T20:40:00.383Z,84.6
2022-10-12T20:45:00.404Z,85.2
2022-10-12T20:50:00.411Z,85.5
2022-10-12T20:55:00.428Z,85.2
2022-10-12T21:00:00.455Z,85.8
2022-10-12T21:05:00.447Z,85.8
2022-10-12T21:10:00.440Z,85.5
2022-10-12T21:15:00.437Z,85.8
2022-10-12T21:20:00.419Z,84.5
2022-10-12T21:25:00.460Z,85.5
2022-10-12T21:30:00.432Z,85.2
2022-10-12T21:35:00.543Z,85.8
2022-10-12T21:40:00.522Z,85.5
2022-10-12T21:45:00.522Z,85.8
2022-10-12T21:50:00.563Z,85.5
2022-10-12T21:55:00.514Z,85.5
2022-10-12T22:00:00.547Z,85.8
2022-10-12T22:05:00.572Z,85.2
2022-10-12T22:10:00.511Z,85.2
2022-10-12T22:15:00.512Z,85.2
2022-10-12T22:20:00.524Z,85.2
2022-10-12T22:25:00.506Z,85.5
2022-10-12T22:30:00.505Z,85.2
2022-10-12T22:35:00.523Z,85.2
2022-10-12T22:40:00.520Z,85.1
2022-10-12T22:45:00.523Z,85.1
2022-10-12T22:50:00.521Z,85.1
2022-10-12T22:55:00.525Z,85.1
2022-10-12T23:00:00.344Z,85.8
2022-10-12T23:05:00.274Z,85.8
2022-10-12T23:10:00.167Z,85.8
2022-10-12T23:15:00.195Z,85.8
2022-10-12T23:20:00.181Z,86.4
2022-10-12T23:25:00.219Z,85.8
2022-10-12T23:30:00.306Z,85.8
2022-10-12T23:35:00.226Z,86.1
2022-10-12T23:40:00.224Z,85.8
2022-10-12T23:45:00.223Z,85.7
2022-10-12T23:50:00.213Z,86.1
2022-10-12T23:55:00.213Z,86
